createdAt,value
2023-02-06T00:01:30.533Z,23.40
2023-02-06T00:03:58.749Z,21.93
2023-02-06T00:06:26.728Z,21.57
2023-02-06T00:08:56.550Z,26.13
2023-02-06T00:11:24.726Z,20.70
2023-02-06T00:13:53.183Z,23.53
2023-02-06T00:16:22.986Z,18.53
2023-02-06T00:18:51.758Z,17.93
2023-02-06T00:21:22.088Z,16.03
2023-02-06T00:23:50.720Z,17.23
2023-02-06T00:26:20.196Z,15.73
2023-02-06T00:28:48.709Z,16.53
2023-02-06T00:31:17.162Z,18.40
2023-02-06T00:33:45.124Z,18.77
2023-02-06T00:36:13.350Z,17.97
2023-02-06T00:38:41.385Z,17.00
2023-02-06T00:41:09.583Z,16.73
2023-02-06T00:43:38.978Z,18.00
2023-02-06T00:46:07.068Z,17.10
2023-02-06T00:48:34.932Z,19.83
2023-02-06T00:51:02.886Z,15.17
2023-02-06T00:53:30.762Z,15.67
2023-02-06T00:55:58.841Z,15.17
2023-02-06T00:58:26.905Z,18.40
2023-02-06T01:00:58.234Z,17.03
2023-02-06T01:03:27.052Z,15.63
2023-02-06T01:05:54.979Z,17.67
2023-02-06T01:08:23.026Z,15.17
2023-02-06T01:10:50.910Z,14.57
2023-02-06T01:13:18.884Z,14.17
2023-02-06T01:15:46.950Z,15.57
2023-02-06T01:18:17.564Z,15.97
2023-02-06T01:20:45.705Z,16.27
2023-02-06T01:23:13.857Z,13.27
2023-02-06T01:25:41.819Z,13.10
2023-02-06T01:28:09.752Z,15.87
2023-02-06T01:30:37.723Z,13.87
2023-02-06T01:33:05.752Z,11.80
2023-02-06T01:35:35.449Z,14.40
2023-02-06T01:38:03.510Z,12.43
2023-02-06T01:40:31.483Z,13.90
2023-02-06T01:42:59.589Z,12.97
2023-02-06T01:45:46.294Z,13.53
2023-02-06T01:48:22.150Z,12.53
2023-02-06T01:50:54.980Z,11.53
2023-02-06T01:53:24.519Z,16.20
2023-02-06T01:55:55.805Z,15.00
2023-02-06T01:58:29.223Z,15.43
2023-02-06T02:00:58.781Z,13.03
2023-02-06T02:03:28.060Z,13.80
2023-02-06T02:06:02.386Z,15.17
2023-02-06T02:08:35.227Z,14.27
2023-02-06T02:11:05.484Z,18.40
2023-02-06T02:13:36.571Z,13.40
2023-02-06T02:16:13.988Z,13.13
2023-02-06T02:19:03.813Z,18.00
2023-02-06T02:22:04.737Z,14.93
2023-02-06T02:24:52.286Z,15.10
2023-02-06T02:28:06.794Z,13.00
2023-02-06T02:30:52.578Z,18.23
2023-02-06T02:33:50.705Z,15.67
2023-02-06T02:36:27.326Z,13.47
2023-02-06T02:39:04.467Z,14.60
2023-02-06T02:41:39.242Z,11.90
2023-02-06T02:44:11.532Z,14.67
2023-02-06T02:46:42.473Z,15.33
2023-02-06T02:49:14.457Z,13.87
2023-02-06T02:51:44.904Z,14.17
2023-02-06T02:54:12.813Z,15.40
2023-02-06T02:56:40.931Z,12.80
2023-02-06T02:59:14.447Z,16.30
2023-02-06T03:01:49.852Z,12.40
2023-02-06T03:04:24.083Z,15.20
2023-02-06T03:07:10.659Z,16.03
2023-02-06T03:09:52.357Z,17.13
2023-02-06T03:12:27.019Z,15.27
2023-02-06T03:14:59.298Z,16.57
2023-02-06T03:17:34.562Z,15.30
2023-02-06T03:20:05.412Z,13.43
2023-02-06T03:22:37.136Z,13.93
2023-02-06T03:25:08.606Z,12.60
2023-02-06T03:27:40.246Z,13.43
2023-02-06T03:30:10.751Z,14.03
2023-02-06T03:32:43.455Z,11.77
2023-02-06T03:35:16.928Z,14.43
2023-02-06T03:37:47.946Z,13.73
2023-02-06T03:40:16.636Z,19.10
2023-02-06T03:42:49.631Z,15.37
2023-02-06T03:45:24.250Z,15.00
2023-02-06T03:47:54.466Z,16.73
2023-02-06T03:50:24.715Z,18.43
2023-02-06T03:52:57.394Z,11.50
2023-02-06T03:55:26.251Z,15.67
2023-02-06T03:57:56.881Z,10.93
2023-02-06T04:00:25.466Z,17.17
2023-02-06T04:02:56.203Z,16.17
2023-02-06T04:05:24.208Z,10.50
2023-02-06T04:07:54.013Z,14.20
2023-02-06T04:10:21.965Z,19.87
2023-02-06T04:12:50.015Z,14.73
2023-02-06T04:15:18.056Z,16.33
2023-02-06T04:17:58.846Z,14.57
2023-02-06T04:20:27.949Z,12.60
2023-02-06T04:22:57.514Z,12.83
2023-02-06T04:25:25.928Z,11.23
2023-02-06T04:27:53.935Z,15.33
2023-02-06T04:30:22.305Z,15.67
2023-02-06T04:32:50.259Z,15.37
2023-02-06T04:35:18.097Z,13.33
2023-02-06T04:37:46.050Z,16.23
2023-02-06T04:40:15.418Z,17.47
2023-02-06T04:42:43.422Z,14.40
2023-02-06T04:45:11.643Z,13.60
2023-02-06T04:47:39.776Z,14.03
2023-02-06T04:50:08.601Z,18.23
2023-02-06T04:52:36.662Z,17.73
2023-02-06T04:55:04.858Z,13.67
2023-02-06T04:57:34.198Z,13.10
2023-02-06T05:00:02.133Z,14.37
2023-02-06T05:02:30.056Z,18.03
2023-02-06T05:04:58.225Z,14.00
2023-02-06T05:07:26.393Z,15.87
2023-02-06T05:09:54.316Z,13.50
2023-02-06T05:12:24.611Z,15.87
2023-02-06T05:14:53.959Z,12.20
2023-02-06T05:17:23.690Z,17.60
2023-02-06T05:19:51.702Z,14.57
2023-02-06T05:22:19.899Z,12.07
2023-02-06T05:24:51.798Z,14.07
2023-02-06T05:27:20.493Z,12.07
2023-02-06T05:29:49.450Z,19.17
2023-02-06T05:32:20.109Z,15.90
2023-02-06T05:34:48.035Z,19.00
2023-02-06T05:37:15.903Z,12.63
2023-02-06T05:39:43.938Z,15.60
2023-02-06T05:42:11.848Z,14.33
2023-02-06T05:44:39.696Z,14.23
2023-02-06T05:47:07.651Z,16.33
2023-02-06T05:49:36.967Z,14.87
2023-02-06T05:52:04.969Z,14.93
2023-02-06T05:54:33.232Z,18.87
2023-02-06T05:57:01.610Z,20.60
2023-02-06T05:59:30.362Z,16.33
2023-02-06T06:01:58.789Z,16.40
2023-02-06T06:04:27.274Z,19.17
2023-02-06T06:06:56.896Z,15.57
2023-02-06T06:09:25.238Z,17.37
2023-02-06T06:11:53.393Z,13.80
2023-02-06T06:14:21.647Z,15.33
2023-02-06T06:16:49.572Z,16.33
2023-02-06T06:19:17.936Z,17.43
2023-02-06T06:21:45.823Z,16.80
2023-02-06T06:24:15.201Z,16.83
2023-02-06T06:26:43.079Z,20.50
2023-02-06T06:29:10.965Z,18.80
2023-02-06T06:31:39.038Z,17.10
2023-02-06T06:34:06.919Z,16.30
2023-02-06T06:36:34.848Z,15.13
2023-02-06T06:39:03.259Z,16.77
2023-02-06T06:41:32.513Z,14.83
2023-02-06T06:44:00.392Z,16.47
2023-02-06T06:46:28.284Z,17.47
2023-02-06T06:48:56.268Z,16.27
2023-02-06T06:51:24.090Z,16.00
2023-02-06T06:53:51.904Z,14.57
2023-02-06T06:56:19.723Z,15.83
2023-02-06T06:58:49.088Z,15.17
2023-02-06T07:01:17.637Z,15.30
2023-02-06T07:03:48.180Z,13.60
2023-02-06T07:06:16.659Z,14.70
2023-02-06T07:08:44.592Z,16.97
2023-02-06T07:11:14.581Z,16.53
2023-02-06T07:13:43.018Z,17.47
2023-02-06T07:16:12.974Z,21.33
2023-02-06T07:18:41.977Z,14.87
2023-02-06T07:21:10.338Z,20.33
2023-02-06T07:23:38.715Z,18.20
2023-02-06T07:26:06.853Z,16.67
2023-02-06T07:28:35.111Z,15.67
2023-02-06T07:31:04.106Z,18.20
2023-02-06T07:33:33.405Z,15.33
2023-02-06T07:36:03.882Z,17.40
2023-02-06T07:38:32.570Z,19.47
2023-02-06T07:41:02.596Z,19.30
2023-02-06T07:43:30.642Z,19.57
2023-02-06T07:46:00.925Z,17.90
2023-02-06T07:48:29.128Z,20.63
2023-02-06T07:50:58.611Z,18.93
2023-02-06T07:53:26.495Z,21.73
2023-02-06T07:55:54.305Z,17.77
2023-02-06T07:58:22.089Z,18.90
2023-02-06T08:00:50.122Z,17.77
2023-02-06T08:03:18.070Z,23.40
2023-02-06T08:05:45.960Z,15.27
2023-02-06T08:08:15.363Z,17.40
2023-02-06T08:10:43.191Z,18.97
2023-02-06T08:13:11.091Z,19.30
2023-02-06T08:15:38.934Z,15.73
2023-02-06T08:18:06.779Z,22.13
2023-02-06T08:20:34.606Z,20.27
2023-02-06T08:23:02.588Z,25.30
2023-02-06T08:25:31.854Z,22.50
2023-02-06T08:27:59.728Z,24.03
2023-02-06T08:30:27.722Z,29.63
2023-02-06T08:32:55.575Z,28.10
2023-02-06T08:35:23.479Z,24.57
2023-02-06T08:37:51.344Z,24.23
2023-02-06T08:40:21.218Z,23.77
2023-02-06T08:42:52.530Z,24.97
2023-02-06T08:45:20.682Z,19.53
2023-02-06T08:47:48.525Z,24.37
2023-02-06T08:50:17.065Z,21.40
2023-02-06T08:52:44.921Z,19.40
2023-02-06T08:55:12.735Z,19.43
2023-02-06T08:57:40.603Z,20.83
2023-02-06T09:00:11.407Z,23.80
2023-02-06T09:02:39.283Z,23.33
2023-02-06T09:05:07.447Z,24.87
2023-02-06T09:07:35.868Z,19.73
2023-02-06T09:10:05.332Z,21.67
2023-02-06T09:12:33.158Z,24.43
2023-02-06T09:15:01.667Z,21.33
2023-02-06T09:17:31.787Z,20.87
2023-02-06T09:19:59.624Z,21.20
2023-02-06T09:22:28.038Z,18.70
2023-02-06T09:24:56.142Z,19.97
2023-02-06T09:27:23.962Z,22.47
2023-02-06T09:29:51.729Z,18.83
2023-02-06T09:32:19.665Z,21.03
2023-02-06T09:34:49.447Z,22.00
2023-02-06T09:37:17.820Z,16.10
2023-02-06T09:39:45.747Z,14.13
2023-02-06T09:42:20.409Z,14.90
2023-02-06T09:44:53.596Z,16.27
2023-02-06T09:47:25.865Z,17.10
2023-02-06T09:49:59.059Z,21.43
2023-02-06T09:52:56.879Z,17.87
2023-02-06T09:55:31.316Z,17.87
2023-02-06T09:58:08.631Z,14.13
2023-02-06T10:00:45.642Z,20.40
2023-02-06T10:03:36.679Z,17.70
2023-02-06T10:06:15.828Z,15.40
2023-02-06T10:08:50.415Z,16.97
2023-02-06T10:11:26.631Z,15.77
2023-02-06T10:13:58.785Z,20.00
2023-02-06T10:16:37.768Z,23.03
2023-02-06T10:19:10.668Z,21.73
2023-02-06T10:21:42.915Z,20.93
2023-02-06T10:24:19.995Z,23.53
2023-02-06T10:26:49.073Z,24.77
2023-02-06T10:29:22.554Z,26.23
2023-02-06T10:32:07.419Z,22.73
2023-02-06T10:35:06.936Z,21.47
2023-02-06T10:38:02.683Z,22.33
2023-02-06T10:40:40.336Z,21.20
2023-02-06T10:43:18.327Z,15.90
2023-02-06T10:45:53.005Z,21.27
2023-02-06T10:48:29.657Z,21.17
2023-02-06T10:51:01.773Z,19.80
2023-02-06T10:53:35.801Z,23.63
2023-02-06T10:56:07.868Z,21.17
2023-02-06T10:58:41.761Z,18.83
2023-02-06T11:01:25.631Z,18.20
2023-02-06T11:04:00.119Z,19.33
2023-02-06T11:06:31.164Z,19.17
2023-02-06T11:09:00.691Z,16.83
2023-02-06T11:11:30.837Z,15.10
2023-02-06T11:14:09.092Z,16.63
2023-02-06T11:16:37.606Z,17.20
2023-02-06T11:19:18.919Z,15.93
2023-02-06T11:21:51.770Z,13.47
2023-02-06T11:24:25.568Z,12.47
2023-02-06T11:26:58.506Z,13.67
2023-02-06T11:29:28.925Z,15.27
2023-02-06T11:31:59.706Z,17.00
2023-02-06T11:34:32.751Z,14.97
2023-02-06T11:37:02.977Z,14.77
2023-02-06T11:39:33.674Z,13.10
2023-02-06T11:42:04.623Z,14.37
2023-02-06T11:44:38.110Z,15.13
2023-02-06T11:47:29.441Z,18.07
2023-02-06T11:49:57.783Z,14.70
2023-02-06T11:52:31.685Z,17.53
2023-02-06T11:55:03.131Z,17.33
2023-02-06T11:57:36.100Z,14.90
2023-02-06T12:00:21.267Z,15.63
2023-02-06T12:02:53.884Z,13.53
2023-02-06T12:05:26.122Z,11.83
2023-02-06T12:08:00.702Z,14.57
2023-02-06T12:10:32.569Z,14.37
2023-02-06T12:13:06.830Z,11.47
2023-02-06T12:15:47.896Z,11.07
2023-02-06T12:18:20.004Z,11.90
2023-02-06T12:20:56.472Z,10.77
2023-02-06T12:23:29.187Z,11.87
2023-02-06T12:26:01.517Z,13.17
2023-02-06T12:28:39.764Z,15.37
2023-02-06T12:31:14.169Z,12.50
2023-02-06T12:33:45.784Z,10.97
2023-02-06T12:36:18.102Z,16.70
2023-02-06T12:38:50.146Z,10.53
2023-02-06T12:41:40.767Z,11.77
2023-02-06T12:44:22.966Z,13.50
2023-02-06T12:46:56.287Z,16.03
2023-02-06T12:49:29.505Z,11.40
2023-02-06T12:52:04.891Z,12.00
2023-02-06T12:54:38.771Z,12.07
2023-02-06T12:57:15.670Z,12.40
2023-02-06T13:00:12.861Z,12.77
2023-02-06T13:03:22.261Z,13.53
2023-02-06T13:05:53.652Z,13.87
2023-02-06T13:08:27.732Z,13.33
2023-02-06T13:11:05.106Z,10.83
2023-02-06T13:13:38.066Z,11.63
2023-02-06T13:16:07.911Z,11.97
2023-02-06T13:19:01.557Z,11.63
2023-02-06T13:21:32.374Z,14.73
2023-02-06T13:24:18.854Z,12.93
2023-02-06T13:27:04.284Z,10.50
2023-02-06T13:29:34.782Z,11.37
2023-02-06T13:32:30.875Z,12.37
2023-02-06T13:35:07.919Z,10.73
2023-02-06T13:37:38.296Z,13.90
2023-02-06T13:40:20.989Z,12.77
2023-02-06T13:42:52.809Z,10.37
2023-02-06T13:45:25.999Z,12.80
2023-02-06T13:48:24.452Z,13.13
2023-02-06T13:51:08.956Z,10.57
2023-02-06T13:54:12.745Z,11.67
2023-02-06T13:56:59.651Z,14.13
2023-02-06T13:59:31.227Z,13.50
2023-02-06T14:02:12.189Z,14.17
2023-02-06T14:04:41.182Z,12.33
2023-02-06T14:07:31.486Z,12.87
2023-02-06T14:10:38.632Z,14.23
2023-02-06T14:13:20.032Z,14.70
2023-02-06T14:15:55.852Z,12.73
2023-02-06T14:18:38.284Z,12.27
2023-02-06T14:21:17.001Z,14.20
2023-02-06T14:24:16.455Z,13.63
2023-02-06T14:26:53.836Z,15.50
2023-02-06T14:29:31.674Z,16.67
2023-02-06T14:32:12.868Z,13.33
2023-02-06T14:34:56.264Z,16.47
2023-02-06T14:37:47.828Z,13.63
2023-02-06T14:40:22.209Z,15.60
2023-02-06T14:42:51.594Z,13.73
2023-02-06T14:45:33.821Z,16.70
2023-02-06T14:48:14.443Z,13.23
2023-02-06T14:50:49.513Z,14.80
2023-02-06T14:53:23.162Z,14.47
2023-02-06T14:55:51.191Z,16.93
2023-02-06T14:58:22.014Z,14.13
2023-02-06T15:00:49.876Z,11.17
2023-02-06T15:03:19.246Z,12.10
2023-02-06T15:05:58.735Z,14.13
2023-02-06T15:08:26.587Z,13.50
2023-02-06T15:10:59.226Z,13.93
2023-02-06T15:13:34.837Z,10.87
2023-02-06T15:16:04.852Z,11.70
2023-02-06T15:18:33.818Z,11.63
2023-02-06T15:21:08.141Z,13.27
2023-02-06T15:23:50.023Z,12.03
2023-02-06T15:26:32.167Z,13.07
2023-02-06T15:29:02.866Z,11.00
2023-02-06T15:31:32.065Z,15.10
2023-02-06T15:34:07.437Z,12.43
2023-02-06T15:36:41.520Z,13.60
2023-02-06T15:39:12.009Z,11.90
2023-02-06T15:41:41.372Z,14.50
2023-02-06T15:44:13.527Z,12.00
2023-02-06T15:46:44.465Z,12.73
2023-02-06T15:49:20.101Z,12.17
2023-02-06T15:51:58.431Z,12.30
2023-02-06T15:54:30.537Z,14.30
2023-02-06T15:57:09.820Z,16.67
2023-02-06T15:59:41.922Z,14.20
2023-02-06T16:02:26.216Z,10.70
2023-02-06T16:04:55.747Z,25.70
2023-02-06T16:07:27.598Z,15.70
2023-02-06T16:09:57.962Z,16.37
2023-02-06T16:12:26.474Z,11.60
2023-02-06T16:15:04.633Z,11.70
2023-02-06T16:17:35.556Z,13.23
2023-02-06T16:20:05.409Z,15.57
2023-02-06T16:22:37.819Z,12.43
2023-02-06T16:25:22.012Z,11.60
2023-02-06T16:27:51.261Z,11.23
2023-02-06T16:30:30.041Z,9.37
2023-02-06T16:33:00.259Z,13.13
2023-02-06T16:35:28.210Z,14.90
2023-02-06T16:37:57.676Z,14.87
2023-02-06T16:40:26.231Z,13.23
2023-02-06T16:42:54.242Z,13.67
2023-02-06T16:45:23.965Z,16.17
2023-02-06T16:47:52.134Z,12.57
2023-02-06T16:50:21.627Z,11.87
2023-02-06T16:52:51.806Z,12.43
2023-02-06T16:55:25.290Z,11.90
2023-02-06T16:57:55.457Z,14.80
2023-02-06T17:00:25.881Z,16.00
2023-02-06T17:02:54.627Z,12.97
2023-02-06T17:05:24.601Z,10.83
2023-02-06T17:07:53.131Z,13.40
2023-02-06T17:10:24.635Z,13.03
2023-02-06T17:12:53.010Z,14.83
2023-02-06T17:15:21.196Z,14.43
2023-02-06T17:17:53.755Z,13.43
2023-02-06T17:20:36.064Z,14.47
2023-02-06T17:23:04.875Z,14.30
2023-02-06T17:25:34.737Z,16.03
2023-02-06T17:28:03.216Z,15.50
2023-02-06T17:30:31.175Z,13.03
2023-02-06T17:33:01.914Z,15.03
2023-02-06T17:35:31.781Z,13.37
2023-02-06T17:38:00.289Z,16.90
2023-02-06T17:40:33.977Z,15.87
2023-02-06T17:43:04.708Z,14.70
2023-02-06T17:45:33.195Z,15.87
2023-02-06T17:48:01.568Z,15.73
2023-02-06T17:50:30.675Z,17.03
2023-02-06T17:53:00.296Z,19.07
2023-02-06T17:55:29.211Z,14.77
2023-02-06T17:58:10.905Z,16.60
2023-02-06T18:00:39.347Z,14.87
2023-02-06T18:03:07.457Z,14.20
2023-02-06T18:05:35.675Z,16.53
2023-02-06T18:08:03.860Z,16.03
2023-02-06T18:10:31.946Z,14.70
2023-02-06T18:12:59.836Z,17.17
2023-02-06T18:15:31.583Z,15.50
2023-02-06T18:18:01.195Z,16.87
2023-02-06T18:20:30.534Z,16.20
2023-02-06T18:22:58.749Z,16.33
2023-02-06T18:25:26.673Z,18.30
2023-02-06T18:27:54.698Z,18.80
2023-02-06T18:30:22.813Z,17.50
2023-02-06T18:32:52.094Z,18.50
2023-02-06T18:35:20.708Z,17.43
2023-02-06T18:37:50.068Z,18.13
2023-02-06T18:40:18.476Z,17.53
2023-02-06T18:42:54.206Z,17.57
2023-02-06T18:45:23.297Z,18.83
2023-02-06T18:47:53.267Z,21.00
2023-02-06T18:50:22.539Z,13.93
2023-02-06T18:52:50.930Z,19.17
2023-02-06T18:55:18.986Z,18.70
2023-02-06T18:57:47.406Z,18.33
2023-02-06T19:00:17.226Z,19.43
2023-02-06T19:02:45.239Z,19.20
2023-02-06T19:05:14.959Z,17.37
2023-02-06T19:07:43.184Z,19.93
2023-02-06T19:10:13.261Z,21.87
2023-02-06T19:12:41.102Z,23.23
2023-02-06T19:15:10.389Z,20.87
2023-02-06T19:17:42.577Z,21.90
2023-02-06T19:20:23.304Z,17.57
2023-02-06T19:22:52.794Z,20.30
2023-02-06T19:25:20.830Z,17.87
2023-02-06T19:27:48.905Z,18.57
2023-02-06T19:30:17.007Z,19.57
2023-02-06T19:32:45.024Z,16.17
2023-02-06T19:35:15.542Z,17.87
2023-02-06T19:37:47.113Z,14.17
2023-02-06T19:40:27.236Z,20.03
2023-02-06T19:42:55.502Z,15.53
2023-02-06T19:45:23.881Z,15.07
2023-02-06T19:47:51.909Z,17.10
2023-02-06T19:50:20.070Z,14.67
2023-02-06T19:52:50.315Z,18.60
2023-02-06T19:55:19.687Z,15.80
2023-02-06T19:57:47.755Z,19.07
2023-02-06T20:00:16.309Z,16.97
2023-02-06T20:02:44.435Z,19.37
2023-02-06T20:05:12.639Z,17.53
2023-02-06T20:07:43.463Z,18.63
2023-02-06T20:10:13.193Z,18.97
2023-02-06T20:12:41.344Z,17.67
2023-02-06T20:15:10.190Z,20.23
2023-02-06T20:17:38.167Z,19.00
2023-02-06T20:20:07.925Z,21.17
2023-02-06T20:23:24.592Z,23.20
2023-02-06T20:25:54.853Z,23.27
2023-02-06T20:28:25.052Z,22.57
2023-02-06T20:33:46.124Z,26.33
2023-02-06T20:39:16.874Z,24.30
2023-02-06T20:42:05.908Z,30.20
2023-02-06T20:44:59.878Z,27.93
2023-02-06T20:47:30.870Z,26.07
2023-02-06T20:50:17.660Z,27.67
2023-02-06T20:53:09.704Z,28.63
2023-02-06T20:56:15.108Z,28.17
2023-02-06T20:58:45.381Z,30.40
2023-02-06T21:01:16.628Z,30.43
2023-02-06T21:03:49.195Z,29.63
2023-02-06T21:06:19.079Z,28.53
2023-02-06T21:08:56.552Z,30.77
2023-02-06T21:11:30.363Z,24.93
2023-02-06T21:14:05.137Z,25.40
2023-02-06T21:16:34.553Z,22.80
2023-02-06T21:19:03.486Z,24.30
2023-02-06T21:21:32.071Z,22.70
2023-02-06T21:24:00.568Z,23.13
2023-02-06T21:26:29.562Z,18.10
2023-02-06T21:28:59.765Z,20.40
2023-02-06T21:31:36.879Z,18.90
2023-02-06T21:34:09.096Z,17.37
2023-02-06T21:36:41.837Z,17.03
2023-02-06T21:39:10.664Z,17.60
2023-02-06T21:41:38.767Z,17.57
2023-02-06T21:44:08.192Z,17.17
2023-02-06T21:46:36.331Z,16.20
2023-02-06T21:49:06.338Z,19.80
2023-02-06T21:51:34.455Z,19.70
2023-02-06T21:54:02.945Z,17.50
2023-02-06T21:56:32.110Z,17.70
2023-02-06T21:59:00.184Z,15.37
2023-02-06T22:01:33.121Z,17.70
2023-02-06T22:04:02.392Z,17.47
2023-02-06T22:06:30.765Z,17.80
2023-02-06T22:09:05.159Z,16.17
2023-02-06T22:11:33.657Z,18.50
2023-02-06T22:14:03.836Z,19.10
2023-02-06T22:16:33.927Z,16.83
2023-02-06T22:19:02.024Z,17.23
2023-02-06T22:21:31.696Z,18.77
2023-02-06T22:24:01.589Z,21.87
2023-02-06T22:26:31.241Z,16.43
2023-02-06T22:28:59.610Z,16.80
2023-02-06T22:31:31.320Z,15.77
2023-02-06T22:34:03.740Z,19.33
2023-02-06T22:36:33.837Z,18.03
2023-02-06T22:39:05.068Z,17.33
2023-02-06T22:41:33.568Z,21.80
2023-02-06T22:44:01.603Z,17.40
2023-02-06T22:46:31.329Z,18.07
2023-02-06T22:49:01.171Z,16.10
2023-02-06T22:51:29.855Z,16.17
2023-02-06T22:53:57.745Z,16.10
2023-02-06T22:56:37.313Z,15.83
2023-02-06T22:59:07.870Z,20.43
2023-02-06T23:01:38.285Z,18.10
2023-02-06T23:04:13.908Z,19.20
2023-02-06T23:06:43.387Z,17.60
2023-02-06T23:09:14.955Z,18.30
2023-02-06T23:11:45.791Z,17.87
2023-02-06T23:14:15.270Z,18.03
2023-02-06T23:16:43.959Z,18.70
2023-02-06T23:19:15.167Z,17.97
2023-02-06T23:21:45.245Z,14.87
2023-02-06T23:24:13.947Z,15.43
2023-02-06T23:26:42.926Z,16.20
2023-02-06T23:29:15.707Z,13.87
2023-02-06T23:31:45.894Z,14.50
2023-02-06T23:34:15.786Z,16.07
2023-02-06T23:36:44.106Z,14.27
2023-02-06T23:39:12.454Z,14.20
2023-02-06T23:41:40.417Z,15.57
2023-02-06T23:44:09.775Z,15.63
2023-02-06T23:46:39.296Z,16.23
2023-02-06T23:49:07.641Z,17.47
2023-02-06T23:51:37.951Z,16.27
2023-02-06T23:54:06.953Z,15.83
2023-02-06T23:56:35.825Z,14.77
2023-02-06T23:59:04.538Z,15.90
